createdAt,value
2022-08-01T00:00:04.982Z,21.60
2022-08-01T00:02:32.255Z,21.60
2022-08-01T00:04:59.408Z,21.50
2022-08-01T00:07:26.171Z,21.50
2022-08-01T00:09:53.011Z,21.60
2022-08-01T00:12:19.725Z,21.50
2022-08-01T00:14:46.542Z,21.50
2022-08-01T00:17:13.262Z,21.60
2022-08-01T00:19:39.975Z,21.50
2022-08-01T00:22:07.284Z,21.50
2022-08-01T00:24:34.468Z,21.60
2022-08-01T00:27:01.183Z,21.60
2022-08-01T00:30:10.426Z,21.60
2022-08-01T00:32:14.697Z,21.50
2022-08-01T00:34:41.427Z,21.50
2022-08-01T00:37:08.165Z,21.50
2022-08-01T00:39:34.917Z,21.50
2022-08-01T00:42:07.533Z,21.50
2022-08-01T00:44:35.019Z,21.40
2022-08-01T00:47:02.056Z,21.40
2022-08-01T00:49:29.494Z,21.40
2022-08-01T00:51:56.468Z,21.40
2022-08-01T00:54:25.664Z,21.40
2022-08-01T00:56:53.252Z,21.40
2022-08-01T00:59:22.688Z,21.40
2022-08-01T01:01:50.866Z,21.40
2022-08-01T01:04:18.730Z,21.50
2022-08-01T01:07:10.514Z,21.50
2022-08-01T01:10:10.387Z,21.50
2022-08-01T01:13:00.340Z,21.60
2022-08-01T01:15:41.094Z,21.60
2022-08-01T01:18:21.393Z,21.60
2022-08-01T01:21:06.097Z,21.60
2022-08-01T01:23:50.906Z,21.60
2022-08-01T01:26:29.846Z,21.60
2022-08-01T01:29:29.258Z,21.60
2022-08-01T01:32:08.352Z,21.60
2022-08-01T01:34:38.622Z,21.50
2022-08-01T01:37:09.929Z,21.60
2022-08-01T01:39:37.804Z,21.60
2022-08-01T01:42:07.797Z,21.60
2022-08-01T01:44:36.795Z,21.60
2022-08-01T01:47:03.809Z,21.70
2022-08-01T01:49:32.861Z,21.70
2022-08-01T01:52:02.525Z,21.70
2022-08-01T01:54:36.932Z,21.80
2022-08-01T01:57:05.747Z,21.80
2022-08-01T01:59:36.945Z,21.80
2022-08-01T02:02:06.921Z,21.80
2022-08-01T02:04:37.380Z,21.90
2022-08-01T02:07:06.985Z,21.90
2022-08-01T02:09:36.478Z,21.90
2022-08-01T02:12:08.789Z,22.00
2022-08-01T02:14:36.793Z,22.00
2022-08-01T02:17:05.240Z,22.00
2022-08-01T02:19:34.601Z,22.00
2022-08-01T02:22:21.694Z,22.00
2022-08-01T02:24:54.990Z,22.00
2022-08-01T02:27:36.430Z,22.00
2022-08-01T02:30:06.973Z,22.00
2022-08-01T02:32:46.973Z,22.00
2022-08-01T02:35:24.210Z,22.00
2022-08-01T02:37:52.081Z,22.00
2022-08-01T02:40:19.282Z,22.00
2022-08-01T02:42:50.934Z,22.00
2022-08-01T02:45:25.336Z,22.00
2022-08-01T02:47:56.768Z,22.00
2022-08-01T02:50:26.879Z,22.00
2022-08-01T02:52:56.230Z,22.10
2022-08-01T02:55:23.872Z,22.00
2022-08-01T02:57:59.299Z,22.10
2022-08-01T03:00:29.160Z,22.10
2022-08-01T03:02:57.275Z,22.10
2022-08-01T03:05:26.005Z,22.00
2022-08-01T03:07:56.047Z,22.10
2022-08-01T03:10:25.505Z,22.00
2022-08-01T03:12:53.884Z,22.00
2022-08-01T03:15:22.409Z,22.00
2022-08-01T03:17:52.350Z,22.10
2022-08-01T03:20:21.832Z,22.00
2022-08-01T03:22:49.929Z,22.00
2022-08-01T03:25:17.692Z,22.10
2022-08-01T03:27:46.598Z,22.00
2022-08-01T03:30:14.384Z,22.00
2022-08-01T03:32:41.514Z,22.00
2022-08-01T03:35:09.046Z,22.00
2022-08-01T03:37:37.717Z,22.00
2022-08-01T03:40:33.433Z,22.00
2022-08-01T03:43:08.228Z,22.10
2022-08-01T03:45:42.075Z,22.00
2022-08-01T03:48:15.720Z,22.10
2022-08-01T03:50:46.450Z,22.10
2022-08-01T03:53:14.425Z,22.10
2022-08-01T03:55:44.138Z,22.10
2022-08-01T03:58:11.470Z,22.10
2022-08-01T04:00:40.280Z,22.10
2022-08-01T04:03:09.436Z,22.10
2022-08-01T04:05:36.670Z,22.10
2022-08-01T04:08:04.037Z,22.00
2022-08-01T04:10:30.871Z,21.90
2022-08-01T04:12:57.658Z,21.90
2022-08-01T04:15:24.855Z,21.80
2022-08-01T04:17:51.700Z,21.80
2022-08-01T04:20:18.607Z,21.80
2022-08-01T04:22:45.415Z,21.70
2022-08-01T04:25:35.831Z,21.80
2022-08-01T04:28:05.081Z,21.80
2022-08-01T04:30:35.524Z,21.70
2022-08-01T04:33:06.253Z,21.70
2022-08-01T04:36:03.742Z,21.70
2022-08-01T04:38:25.294Z,21.70
2022-08-01T04:40:53.403Z,21.70
2022-08-01T04:43:20.347Z,21.70
2022-08-01T04:45:48.541Z,21.70
2022-08-01T04:48:20.289Z,21.70
2022-08-01T04:50:50.314Z,21.80
2022-08-01T04:53:19.049Z,21.80
2022-08-01T04:55:49.470Z,21.80
2022-08-01T04:58:18.457Z,21.80
2022-08-01T05:00:46.243Z,21.80
2022-08-01T05:03:13.168Z,21.90
2022-08-01T05:05:39.943Z,21.90
2022-08-01T05:08:07.261Z,21.90
2022-08-01T05:10:34.740Z,22.00
2022-08-01T05:13:01.512Z,22.00
2022-08-01T05:15:28.386Z,22.10
2022-08-01T05:17:55.783Z,22.10
2022-08-01T05:20:22.581Z,22.10
2022-08-01T05:22:49.535Z,22.10
2022-08-01T05:25:19.210Z,22.10
2022-08-01T05:27:48.005Z,22.10
2022-08-01T05:30:18.069Z,22.10
2022-08-01T05:32:44.835Z,22.10
2022-08-01T05:35:12.068Z,22.20
2022-08-01T05:37:38.772Z,22.20
2022-08-01T05:40:06.816Z,22.30
2022-08-01T05:42:33.531Z,22.30
2022-08-01T05:45:00.324Z,22.30
2022-08-01T05:47:27.321Z,22.40
2022-08-01T05:49:54.087Z,22.50
2022-08-01T05:52:20.798Z,22.50
2022-08-01T05:54:47.545Z,22.60
2022-08-01T05:57:14.815Z,22.70
2022-08-01T05:59:42.156Z,22.70
2022-08-01T06:02:09.380Z,22.80
2022-08-01T06:04:36.569Z,22.70
2022-08-01T06:07:03.352Z,22.70
2022-08-01T06:09:31.698Z,22.70
2022-08-01T06:11:58.698Z,22.80
2022-08-01T06:14:25.549Z,22.80
2022-08-01T06:16:52.308Z,23.00
2022-08-01T06:19:19.152Z,23.10
2022-08-01T06:21:45.948Z,23.30
2022-08-01T06:24:12.736Z,23.50
2022-08-01T06:36:31.102Z,23.70
2022-08-01T06:38:57.843Z,24.70
2022-08-01T06:41:24.559Z,24.80
2022-08-01T06:43:51.305Z,25.00
2022-08-01T06:46:18.136Z,25.10
2022-08-01T06:48:44.902Z,25.30
2022-08-01T06:51:16.347Z,25.40
2022-08-01T06:53:43.917Z,25.60
2022-08-01T06:56:11.842Z,25.90
2022-08-01T06:58:38.638Z,26.20
2022-08-01T07:01:07.917Z,26.50
2022-08-01T07:03:52.265Z,26.80
2022-08-01T07:06:23.252Z,27.00
2022-08-01T07:08:50.037Z,27.10
2022-08-01T07:11:16.858Z,27.00
2022-08-01T07:13:44.339Z,27.00
2022-08-01T07:16:13.856Z,26.90
2022-08-01T07:18:41.376Z,26.80
2022-08-01T07:21:16.650Z,26.70
2022-08-01T07:23:55.783Z,26.50
2022-08-01T07:26:22.816Z,26.30
2022-08-01T07:28:49.542Z,26.20
2022-08-01T07:31:16.399Z,26.10
2022-08-01T07:33:49.038Z,26.20
2022-08-01T07:36:17.016Z,26.00
2022-08-01T07:38:44.045Z,25.90
2022-08-01T07:41:11.050Z,25.80
2022-08-01T07:43:37.922Z,25.70
2022-08-01T07:46:05.109Z,25.50
2022-08-01T07:48:32.239Z,25.40
2022-08-01T07:50:58.993Z,25.30
2022-08-01T07:53:25.995Z,25.30
2022-08-01T07:55:52.941Z,25.30
2022-08-01T07:58:19.687Z,25.20
2022-08-01T08:00:46.549Z,25.20
2022-08-01T08:03:13.261Z,25.10
2022-08-01T08:05:51.656Z,25.00
2022-08-01T08:08:27.000Z,25.10
2022-08-01T08:10:53.886Z,25.00
2022-08-01T08:13:21.345Z,25.00
2022-08-01T08:15:48.852Z,25.00
2022-08-01T08:18:16.255Z,25.00
2022-08-01T08:20:43.266Z,25.20
2022-08-01T08:23:42.909Z,25.50
2022-08-01T08:26:12.134Z,25.70
2022-08-01T08:28:40.346Z,26.00
2022-08-01T08:31:25.128Z,26.30
2022-08-01T08:33:52.810Z,27.20
2022-08-01T08:36:19.524Z,28.10
2022-08-01T08:38:46.261Z,28.60
2022-08-01T08:41:17.960Z,29.90
2022-08-01T08:43:47.625Z,31.70
2022-08-01T08:46:17.135Z,32.70
2022-08-01T08:48:44.216Z,32.60
2022-08-01T08:51:12.448Z,32.70
2022-08-01T08:53:45.520Z,32.50
2022-08-01T08:56:16.133Z,32.40
2022-08-01T08:58:46.054Z,32.90
2022-08-01T09:01:13.820Z,33.70
2022-08-01T09:03:41.717Z,34.90
2022-08-01T09:06:08.820Z,36.10
2022-08-01T09:08:36.413Z,36.50
2022-08-01T09:11:03.727Z,36.20
2022-08-01T09:13:30.636Z,36.00
2022-08-01T09:16:00.665Z,35.70
2022-08-01T09:18:36.185Z,35.60
2022-08-01T09:21:15.319Z,35.90
2022-08-01T09:23:54.061Z,36.70
2022-08-01T09:26:36.809Z,37.70
2022-08-01T09:29:07.608Z,39.30
2022-08-01T09:31:47.713Z,39.60
2022-08-01T09:34:19.787Z,39.40
2022-08-01T09:36:56.794Z,38.40
2022-08-01T09:39:30.785Z,37.40
2022-08-01T09:41:59.877Z,36.20
2022-08-01T09:44:42.829Z,35.20
2022-08-01T09:47:15.323Z,34.30
2022-08-01T09:52:25.986Z,34.00
2022-08-01T09:57:29.551Z,34.50
2022-08-01T10:00:01.406Z,36.50
2022-08-01T10:02:37.844Z,37.30
2022-08-01T10:05:08.184Z,37.70
2022-08-01T10:10:16.273Z,38.30
2022-08-01T10:12:45.384Z,38.40
2022-08-01T10:15:16.139Z,38.60
2022-08-01T10:17:54.711Z,38.80
2022-08-01T10:20:31.365Z,39.10
2022-08-01T10:23:06.001Z,39.30
2022-08-01T10:25:46.623Z,39.20
2022-08-01T10:28:21.433Z,39.20
2022-08-01T10:30:50.047Z,39.10
2022-08-01T10:33:50.029Z,38.80
2022-08-01T10:36:08.666Z,38.60
2022-08-01T10:38:37.219Z,38.10
2022-08-01T10:41:06.281Z,37.40
2022-08-01T10:43:35.544Z,36.60
2022-08-01T10:46:03.179Z,35.90
2022-08-01T10:48:44.216Z,35.30
2022-08-01T11:01:33.870Z,34.20
2022-08-01T11:04:16.427Z,33.40
2022-08-01T11:06:54.283Z,33.10
2022-08-01T11:09:51.659Z,32.80
2022-08-01T11:12:24.868Z,32.80
2022-08-01T11:17:54.799Z,32.70
2022-08-01T11:20:34.174Z,32.60
2022-08-01T11:23:02.105Z,32.40
2022-08-01T11:26:06.755Z,32.30
2022-08-01T11:28:30.157Z,32.10
2022-08-01T11:31:11.911Z,31.90
2022-08-01T11:33:46.301Z,31.90
2022-08-01T11:36:14.245Z,31.70
2022-08-01T11:38:42.579Z,31.70
2022-08-01T11:41:38.264Z,31.80
2022-08-01T11:44:18.297Z,31.90
2022-08-01T11:47:11.630Z,31.80
2022-08-01T11:49:48.904Z,31.50
2022-08-01T11:52:19.028Z,31.50
2022-08-01T11:54:51.423Z,31.30
2022-08-01T11:57:35.650Z,31.20
2022-08-01T12:00:17.630Z,31.30
2022-08-01T12:05:15.541Z,30.90
2022-08-01T12:07:44.252Z,31.20
2022-08-01T12:10:12.458Z,31.30
2022-08-01T12:12:45.163Z,31.30
2022-08-01T12:15:12.725Z,31.10
2022-08-01T12:17:45.881Z,30.80
2022-08-01T12:20:36.713Z,30.40
2022-08-01T12:23:08.419Z,30.40
2022-08-01T12:28:07.965Z,30.70
2022-08-01T12:30:36.638Z,31.10
2022-08-01T12:33:08.879Z,31.30
2022-08-01T12:35:38.196Z,31.50
2022-08-01T12:38:16.284Z,31.60
2022-08-01T12:40:45.526Z,31.60
2022-08-01T12:43:28.500Z,31.60
2022-08-01T12:45:57.839Z,31.60
2022-08-01T12:48:26.628Z,31.70
2022-08-01T12:50:54.339Z,31.80
2022-08-01T12:53:22.356Z,31.70
2022-08-01T12:55:59.111Z,31.50
2022-08-01T12:58:35.845Z,31.20
2022-08-01T13:01:26.949Z,31.00
2022-08-01T13:04:07.206Z,30.80
2022-08-01T13:06:36.351Z,30.60
2022-08-01T13:09:15.095Z,30.50
2022-08-01T13:11:56.279Z,30.30
2022-08-01T13:14:30.055Z,30.10
2022-08-01T13:16:57.644Z,30.00
2022-08-01T13:22:10.537Z,29.90
2022-08-01T13:24:37.529Z,29.90
2022-08-01T13:29:38.229Z,29.70
2022-08-01T13:32:29.654Z,29.60
2022-08-01T13:35:13.905Z,29.50
2022-08-01T13:37:42.414Z,29.50
2022-08-01T13:40:10.964Z,29.40
2022-08-01T13:42:38.298Z,29.30
2022-08-01T13:45:14.822Z,29.30
2022-08-01T13:48:04.204Z,29.20
2022-08-01T13:50:29.822Z,29.20
2022-08-01T13:55:23.821Z,29.10
2022-08-01T13:57:51.065Z,28.90
2022-08-01T14:00:18.111Z,28.80
2022-08-01T14:02:44.887Z,28.70
2022-08-01T14:38:29.275Z,28.40
2022-08-01T14:41:00.529Z,28.30
2022-08-01T14:43:32.793Z,28.20
2022-08-01T14:46:01.109Z,28.20
2022-08-01T14:48:28.037Z,28.10
2022-08-01T14:50:57.119Z,28.10
2022-08-01T14:53:23.901Z,28.10
2022-08-01T14:55:50.645Z,28.00
2022-08-01T14:58:17.388Z,27.90
2022-08-01T15:00:44.251Z,27.80
2022-08-01T15:03:11.113Z,27.80
2022-08-01T15:05:37.897Z,27.80
2022-08-01T15:08:06.797Z,27.80
2022-08-01T15:10:33.535Z,27.70
2022-08-01T15:13:02.375Z,27.80
2022-08-01T15:15:29.358Z,27.70
2022-08-01T15:17:56.688Z,27.70
2022-08-01T15:20:23.498Z,27.60
2022-08-01T15:22:50.323Z,27.60
2022-08-01T15:25:17.059Z,27.50
2022-08-01T15:27:43.786Z,27.50
2022-08-01T15:30:10.828Z,27.40
2022-08-01T15:32:37.711Z,27.40
2022-08-01T15:35:05.827Z,27.40
2022-08-01T15:37:32.733Z,27.40
2022-08-01T15:39:59.524Z,27.40
2022-08-01T15:42:27.252Z,27.30
2022-08-01T15:44:54.641Z,27.30
2022-08-01T15:47:22.608Z,27.20
2022-08-01T15:49:52.547Z,27.20
2022-08-01T15:52:21.878Z,27.20
2022-08-01T15:54:49.492Z,27.20
2022-08-01T15:57:16.361Z,27.10
2022-08-01T15:59:43.259Z,27.10
2022-08-01T16:02:10.556Z,27.10
2022-08-01T16:04:39.089Z,27.10
2022-08-01T16:07:06.481Z,27.10
2022-08-01T16:09:33.325Z,27.00
2022-08-01T16:12:00.391Z,26.90
2022-08-01T16:14:27.196Z,26.90
2022-08-01T16:16:56.598Z,26.80
2022-08-01T16:19:24.597Z,26.80
2022-08-01T16:21:52.311Z,26.80
2022-08-01T16:24:19.060Z,26.80
2022-08-01T16:29:13.011Z,26.70
2022-08-01T16:32:01.475Z,26.70
2022-08-01T16:34:26.678Z,26.60
2022-08-01T16:36:55.314Z,26.60
2022-08-01T16:39:23.667Z,26.50
2022-08-01T16:42:05.390Z,26.50
2022-08-01T16:44:33.858Z,26.50
2022-08-01T16:47:03.368Z,26.50
2022-08-01T16:49:31.931Z,26.60
2022-08-01T16:51:58.940Z,26.60
2022-08-01T16:54:26.477Z,26.50
2022-08-01T16:56:54.319Z,26.50
2022-08-01T16:59:22.680Z,26.50
2022-08-01T17:02:00.298Z,26.50
2022-08-01T17:04:32.268Z,26.50
2022-08-01T17:06:59.162Z,26.40
2022-08-01T17:09:26.018Z,26.30
2022-08-01T17:11:52.806Z,26.30
2022-08-01T17:14:19.736Z,26.30
2022-08-01T17:16:46.618Z,26.20
2022-08-01T17:19:14.794Z,26.10
2022-08-01T17:21:42.543Z,26.00
2022-08-01T17:24:09.619Z,26.00
2022-08-01T17:26:36.438Z,26.00
2022-08-01T17:29:03.536Z,25.90
2022-08-01T17:31:30.287Z,25.80
2022-08-01T17:33:57.018Z,25.80
2022-08-01T17:36:23.809Z,25.70
2022-08-01T18:18:41.367Z,25.00
2022-08-01T18:21:08.824Z,24.90
2022-08-01T18:23:35.911Z,24.90
2022-08-01T18:26:03.441Z,24.80
2022-08-01T18:28:35.347Z,24.70
2022-08-01T18:31:04.285Z,24.60
2022-08-01T18:33:31.018Z,24.60
2022-08-01T18:36:03.570Z,24.60
2022-08-01T18:38:32.994Z,24.50
2022-08-01T18:41:00.757Z,24.40
2022-08-01T19:55:23.541Z,24.40
2022-08-01T19:58:17.260Z,23.40
2022-08-01T20:00:39.906Z,23.30
2022-08-01T20:03:08.938Z,23.30
2022-08-01T20:05:37.127Z,23.20
2022-08-01T20:08:06.515Z,23.10
2022-08-01T20:10:33.905Z,23.10
2022-08-01T20:13:02.260Z,23.00
2022-08-01T20:15:29.969Z,23.00
2022-08-01T20:18:00.493Z,22.90
2022-08-01T20:20:27.914Z,22.80
2022-08-01T20:22:57.562Z,22.90
2022-08-01T20:25:33.601Z,22.80
2022-08-01T20:28:11.818Z,22.70
2022-08-01T20:30:40.398Z,22.60
2022-08-01T20:33:08.502Z,22.60
2022-08-01T20:35:53.334Z,22.50
2022-08-01T20:38:27.727Z,22.50
2022-08-01T20:40:58.765Z,22.40
2022-08-01T20:43:27.527Z,22.30
2022-08-01T20:45:55.438Z,22.30
2022-08-01T20:48:25.185Z,22.30
2022-08-01T20:51:10.792Z,22.20
2022-08-01T20:53:41.837Z,22.20
2022-08-01T20:56:14.687Z,22.10
2022-08-01T20:59:00.065Z,22.10
2022-08-01T21:01:29.494Z,22.10
2022-08-01T21:03:56.167Z,22.10
2022-08-01T21:06:30.427Z,22.00
2022-08-01T21:09:02.378Z,22.00
2022-08-01T21:11:38.909Z,22.00
2022-08-01T21:14:11.100Z,21.90
2022-08-01T21:16:43.329Z,22.00
2022-08-01T21:19:20.018Z,22.00
2022-08-01T21:22:11.637Z,22.00
2022-08-01T21:24:58.127Z,21.90
2022-08-01T21:27:32.769Z,21.90
2022-08-01T21:30:04.221Z,21.90
2022-08-01T21:32:33.762Z,22.00
2022-08-01T21:35:02.388Z,22.00
2022-08-01T21:37:31.194Z,22.10
2022-08-01T21:40:00.240Z,22.10
2022-08-01T21:42:37.875Z,22.10
2022-08-01T21:45:06.337Z,22.20
2022-08-01T21:47:33.138Z,22.20
2022-08-01T21:50:04.228Z,22.30
2022-08-01T21:52:45.282Z,22.30
2022-08-01T21:55:34.018Z,22.30
2022-08-01T21:58:17.053Z,22.40
2022-08-01T22:00:53.079Z,22.50
2022-08-01T22:03:24.764Z,22.50
2022-08-01T22:05:54.679Z,22.50
2022-08-01T22:08:26.850Z,22.60
2022-08-01T22:10:59.243Z,22.60
2022-08-01T22:13:26.074Z,22.60
2022-08-01T22:15:56.250Z,22.60
2022-08-01T22:18:23.491Z,22.70
2022-08-01T22:20:51.799Z,22.60
2022-08-01T22:23:21.626Z,22.60
2022-08-01T22:25:54.095Z,22.60
2022-08-01T22:28:22.093Z,22.70
2022-08-01T22:30:51.299Z,22.60
2022-08-01T22:33:18.609Z,22.70
2022-08-01T22:35:50.528Z,22.70
2022-08-01T22:38:19.196Z,22.60
2022-08-01T22:40:53.063Z,22.60
2022-08-01T22:43:34.498Z,22.60
2022-08-01T22:46:10.045Z,22.60
2022-08-01T22:48:46.505Z,22.60
2022-08-01T22:51:43.565Z,22.50
2022-08-01T22:54:39.235Z,22.50
2022-08-01T22:57:20.115Z,22.40
2022-08-01T22:59:57.580Z,22.40
2022-08-01T23:02:28.107Z,22.40
2022-08-01T23:05:01.296Z,22.40
2022-08-01T23:07:38.346Z,22.40
2022-08-01T23:10:07.627Z,22.40
2022-08-01T23:12:34.430Z,22.40
2022-08-01T23:15:02.318Z,22.40
2022-08-01T23:17:31.337Z,22.40
2022-08-01T23:20:00.986Z,22.40
2022-08-01T23:22:32.929Z,22.50
2022-08-01T23:25:04.267Z,22.50
2022-08-01T23:27:51.502Z,22.50
2022-08-01T23:30:30.683Z,22.50
2022-08-01T23:32:58.193Z,22.50
2022-08-01T23:35:25.581Z,22.50
2022-08-01T23:37:52.748Z,22.60
2022-08-01T23:40:19.926Z,22.60
2022-08-01T23:42:47.054Z,22.60
2022-08-01T23:45:14.123Z,22.60
2022-08-01T23:47:40.891Z,22.60
2022-08-01T23:50:08.407Z,22.60
2022-08-01T23:52:38.847Z,22.70
2022-08-01T23:55:15.817Z,22.60
2022-08-01T23:57:43.003Z,22.60
